Disclaimer

Please do not use the information listed here in-flight or in-navigation, as they are not provided to us by the airports but are provided by volunteers, so they might be outdated.

Search


Regions


Airport information page

No radio frequency information is available.

Airport informations:
Latitude: 22° 32' 58.70" S
Longitude: 055° 42' 09.41" W
Elevation: 2156 feet - 657 meters
Operating hours: Remarks
Operating agency: Civil government, landing fees and diplomatic clearance may be required
Timezone: UTC-4(-3DT)
Fuel: Jet A1, without icing nhibitor.

100/130 octane gasoline, leaded, MIL-L-5572F (GREEN)

Runway information:
03/21 - 6562 x 148 feet< - >2000 x 45 meters

Recent METARs:
SBPP 181715Z 14022KT 5000 TSRA OVC003 //////CB 17/15 Q1015 RERA
SBPP 181715Z 14022KT 5000 TSRA OVC003 //////CB 17/15 Q1015 RERA
SBPP 181800Z 13014KT 9999 -TSRA SCT003 FEW030CB OVC100 17/16 Q1 015 RERA

Airport on the map: